Time;durP1;ratioP1;P1;durP2;ratioP2;P2;SDS_P1;SDS_P2;PMS_P1;PMS_P2;Temp;Humidity;BMP_temperature;BMP_pressure;BME280_temperature;BME280_humidity;BME280_pressure;Samples;Min_cycle;Max_cycle;Signal;HPM_P1;HPM_P2
2021/09/19 00:01:46;;;;;;;3.90;3.13;;;14.30;99.90;;;;;;5092382;28;20031;-48
2021/09/19 00:04:11;;;;;;;6.65;3.88;;;14.30;99.90;;;;;;5093371;28;20118;-46
2021/09/19 00:06:37;;;;;;;3.33;3.08;;;14.30;99.90;;;;;;5093740;28;20103;-49
2021/09/19 00:09:02;;;;;;;4.00;2.75;;;14.30;99.90;;;;;;5093244;28;20024;-51
2021/09/19 00:11:28;;;;;;;3.85;3.55;;;14.30;99.90;;;;;;5093728;28;20493;-47
2021/09/19 00:13:54;;;;;;;6.55;3.55;;;14.30;99.90;;;;;;5093511;28;20025;-51
2021/09/19 00:16:19;;;;;;;5.22;3.22;;;14.20;99.90;;;;;;5093746;28;20020;-50
2021/09/19 00:18:45;;;;;;;3.50;2.78;;;14.20;99.90;;;;;;5093711;28;20024;-49
2021/09/19 00:21:12;;;;;;;26.52;3.67;;;14.10;99.90;;;;;;5093483;28;20074;-49
2021/09/19 00:23:37;;;;;;;3.63;3.08;;;14.10;99.90;;;;;;5092158;28;20098;-52
2021/09/19 00:26:03;;;;;;;4.25;3.10;;;14.00;99.90;;;;;;5094228;28;20157;-51
2021/09/19 00:28:29;;;;;;;3.25;2.90;;;14.00;99.90;;;;;;5084904;22;20494;-46
2021/09/19 00:30:54;;;;;;;2.92;2.72;;;14.00;99.90;;;;;;5053258;28;20037;-49
2021/09/19 00:33:20;;;;;;;2.58;2.38;;;14.00;99.90;;;;;;5053334;28;20486;-47
2021/09/19 00:35:45;;;;;;;3.70;2.80;;;14.00;99.90;;;;;;5053162;28;20389;-45
2021/09/19 00:38:11;;;;;;;6.85;3.53;;;13.90;99.90;;;;;;5052477;28;20104;-45
2021/09/19 00:40:36;;;;;;;2.97;2.55;;;13.90;99.90;;;;;;5053176;28;20025;-45
2021/09/19 00:43:02;;;;;;;3.88;3.58;;;13.90;99.90;;;;;;5053348;28;20025;-46
2021/09/19 00:45:28;;;;;;;5.05;3.30;;;13.90;99.90;;;;;;5053467;28;20073;-50
2021/09/19 00:47:53;;;;;;;6.10;3.25;;;13.80;99.90;;;;;;5052364;28;20041;-48
2021/09/19 00:50:22;;;;;;;3.40;3.10;;;13.80;99.90;;;;;;5052946;28;20278;-48
2021/09/19 00:52:48;;;;;;;3.78;3.47;;;13.80;99.90;;;;;;5052867;28;20017;-49
2021/09/19 00:55:15;;;;;;;5.68;3.90;;;13.70;99.90;;;;;;5052723;28;20037;-49
2021/09/19 00:57:43;;;;;;;4.53;3.13;;;13.70;99.90;;;;;;5052370;28;20036;-47
2021/09/19 01:00:10;;;;;;;4.80;3.05;;;13.70;99.90;;;;;;5052557;28;20071;-46
2021/09/19 01:02:36;;;;;;;4.97;2.92;;;13.60;99.90;;;;;;5052140;28;20409;-45
2021/09/19 01:05:03;;;;;;;4.32;3.10;;;13.50;99.90;;;;;;5052242;28;20079;-45
2021/09/19 01:07:29;;;;;;;3.50;3.20;;;13.50;99.90;;;;;;5051914;28;20037;-48
2021/09/19 01:09:54;;;;;;;3.63;3.33;;;13.50;99.90;;;;;;5052057;28;20094;-50
2021/09/19 01:12:24;;;;;;;3.97;2.92;;;13.50;99.90;;;;;;5051589;28;20028;-46
2021/09/19 01:14:50;;;;;;;11.55;3.28;;;13.40;99.90;;;;;;5051962;28;20071;-45
2021/09/19 01:17:19;;;;;;;2.90;2.70;;;13.40;99.90;;;;;;5051554;28;20112;-50
2021/09/19 01:19:47;;;;;;;5.28;2.72;;;13.40;99.90;;;;;;5052096;28;20047;-50
2021/09/19 01:22:14;;;;;;;4.72;2.78;;;13.40;99.90;;;;;;5051968;28;20025;-49
2021/09/19 01:24:40;;;;;;;9.35;3.85;;;13.40;99.90;;;;;;5051660;28;20037;-47
2021/09/19 01:27:06;;;;;;;3.88;3.58;;;13.40;99.90;;;;;;5051447;28;20021;-46
2021/09/19 01:29:32;;;;;;;3.35;3.15;;;13.40;99.90;;;;;;5050966;28;20029;-45
2021/09/19 01:31:58;;;;;;;4.90;3.25;;;13.40;99.90;;;;;;5051729;28;20025;-49
2021/09/19 01:34:25;;;;;;;3.22;2.97;;;13.30;99.90;;;;;;5051558;28;20033;-45
2021/09/19 01:36:51;;;;;;;4.55;3.33;;;13.30;99.90;;;;;;5051703;28;20112;-48
2021/09/19 01:39:17;;;;;;;6.28;3.25;;;13.20;99.90;;;;;;5049931;28;20112;-45
2021/09/19 01:41:43;;;;;;;3.72;3.00;;;13.10;99.90;;;;;;5051796;28;20033;-46
2021/09/19 01:44:08;;;;;;;7.00;3.95;;;13.10;99.90;;;;;;5051801;28;20100;-48
2021/09/19 01:46:36;;;;;;;5.53;3.67;;;13.10;99.90;;;;;;5051762;28;20418;-46
2021/09/19 01:49:01;;;;;;;3.70;3.40;;;13.10;99.90;;;;;;5050754;28;20025;-46
2021/09/19 01:51:27;;;;;;;3.95;2.83;;;13.00;99.90;;;;;;5051583;28;20525;-46
2021/09/19 01:53:53;;;;;;;6.65;3.83;;;12.90;99.90;;;;;;5051522;28;20059;-47
2021/09/19 01:56:20;;;;;;;5.20;3.00;;;12.90;99.90;;;;;;5051422;28;20027;-46
2021/09/19 01:58:48;;;;;;;5.90;4.25;;;12.90;99.90;;;;;;5050528;28;20017;-47
2021/09/19 02:01:15;;;;;;;3.25;3.05;;;12.90;99.90;;;;;;5033652;28;20032;-48
2021/09/19 02:03:41;;;;;;;4.30;3.10;;;12.90;99.90;;;;;;5051453;28;20074;-48
2021/09/19 02:06:08;;;;;;;3.30;3.10;;;12.90;99.90;;;;;;5051261;28;20066;-45
2021/09/19 02:08:36;;;;;;;4.05;3.35;;;12.80;99.90;;;;;;5032454;28;20035;-46
2021/09/19 02:11:07;;;;;;;5.45;3.50;;;12.80;99.90;;;;;;5032642;28;20428;-48
2021/09/19 02:13:34;;;;;;;3.10;2.83;;;12.80;99.90;;;;;;5050774;28;20033;-47
2021/09/19 02:16:01;;;;;;;3.75;3.25;;;12.80;99.90;;;;;;5050809;28;20028;-49
2021/09/19 02:18:27;;;;;;;3.60;3.33;;;12.80;99.90;;;;;;5049916;28;20086;-50
2021/09/19 02:20:53;;;;;;;4.53;3.40;;;12.80;99.90;;;;;;5050738;28;20029;-46
2021/09/19 02:23:18;;;;;;;4.22;3.78;;;12.70;99.90;;;;;;5049746;28;20497;-51
2021/09/19 02:25:44;;;;;;;4.07;3.67;;;12.70;99.90;;;;;;5050478;28;20032;-51
2021/09/19 02:28:10;;;;;;;4.28;3.65;;;12.60;99.90;;;;;;5049738;28;20035;-50
2021/09/19 02:30:35;;;;;;;5.75;3.28;;;12.60;99.90;;;;;;5050326;28;20021;-49
2021/09/19 02:33:01;;;;;;;3.65;3.35;;;12.60;99.90;;;;;;5050770;28;20062;-47
2021/09/19 02:35:26;;;;;;;5.90;4.22;;;12.60;99.90;;;;;;5032547;28;20029;-46
2021/09/19 02:37:52;;;;;;;4.88;3.90;;;12.60;99.90;;;;;;5049594;28;20429;-48
2021/09/19 02:40:18;;;;;;;4.13;3.80;;;12.60;99.90;;;;;;5032268;28;20124;-47
2021/09/19 02:42:43;;;;;;;3.72;3.42;;;12.60;99.90;;;;;;5050386;28;20079;-47
2021/09/19 02:45:11;;;;;;;3.78;3.47;;;12.60;99.90;;;;;;5050135;28;20037;-46
2021/09/19 02:47:38;;;;;;;4.35;3.90;;;12.50;99.90;;;;;;5031842;28;20091;-47
2021/09/19 02:50:05;;;;;;;4.15;3.80;;;12.50;99.90;;;;;;5050555;28;20033;-45
2021/09/19 02:52:31;;;;;;;3.33;3.10;;;12.50;99.90;;;;;;5050327;28;20025;-46
2021/09/19 02:54:56;;;;;;;3.88;3.58;;;12.50;99.90;;;;;;5050418;28;20115;-47
2021/09/19 02:57:22;;;;;;;4.10;3.72;;;12.50;99.90;;;;;;5049827;28;20033;-49
2021/09/19 02:59:47;;;;;;;4.00;3.42;;;12.50;99.90;;;;;;5050611;28;20136;-47
2021/09/19 03:02:13;;;;;;;2.95;2.75;;;12.50;99.90;;;;;;5050466;28;20606;-46
2021/09/19 03:04:38;;;;;;;4.55;3.65;;;12.50;99.90;;;;;;5065709;28;20032;-46
2021/09/19 03:07:04;;;;;;;3.60;3.28;;;12.50;99.90;;;;;;5032265;28;20289;-45
2021/09/19 03:09:29;;;;;;;3.85;3.03;;;12.50;99.90;;;;;;5049838;28;20029;-49
2021/09/19 03:11:55;;;;;;;3.85;3.55;;;12.50;99.90;;;;;;5032814;28;20106;-49
2021/09/19 03:14:20;;;;;;;4.65;3.67;;;12.50;99.90;;;;;;5032550;28;20037;-50
2021/09/19 03:16:46;;;;;;;4.93;4.53;;;12.50;99.90;;;;;;5050585;28;20033;-49
2021/09/19 03:19:12;;;;;;;3.55;3.25;;;12.60;99.90;;;;;;5064793;28;20055;-48
2021/09/19 03:21:37;;;;;;;3.97;3.58;;;12.50;99.90;;;;;;5032390;28;20131;-48
2021/09/19 03:24:03;;;;;;;6.68;3.88;;;12.50;99.90;;;;;;5032057;28;20017;-48
2021/09/19 03:26:28;;;;;;;7.32;3.25;;;12.50;99.90;;;;;;5049803;28;20057;-45
2021/09/19 03:28:54;;;;;;;4.82;3.55;;;12.50;99.90;;;;;;5049017;28;20110;-46
2021/09/19 03:31:19;;;;;;;3.53;3.22;;;12.50;99.90;;;;;;5049847;28;20017;-45
2021/09/19 03:33:45;;;;;;;9.70;3.78;;;12.40;99.90;;;;;;5066072;28;20025;-45
2021/09/19 03:36:10;;;;;;;3.67;3.22;;;12.50;99.90;;;;;;5053827;28;20482;-46
2021/09/19 03:38:36;;;;;;;4.45;3.78;;;12.50;99.90;;;;;;5050963;28;20047;-45
2021/09/19 03:41:02;;;;;;;3.13;2.90;;;12.50;99.90;;;;;;5068981;28;20491;-45
2021/09/19 03:43:27;;;;;;;5.82;3.08;;;12.50;99.90;;;;;;5053689;28;20017;-45
2021/09/19 03:45:53;;;;;;;3.58;3.35;;;12.50;99.90;;;;;;5053922;28;20025;-50
2021/09/19 03:48:18;;;;;;;5.15;3.45;;;12.50;99.90;;;;;;5052608;28;20501;-47
2021/09/19 03:50:45;;;;;;;8.18;3.67;;;12.50;99.90;;;;;;5053216;28;20118;-47
2021/09/19 03:53:10;;;;;;;3.83;3.25;;;12.40;99.90;;;;;;5053300;28;20013;-49
2021/09/19 03:55:36;;;;;;;3.50;3.22;;;12.50;99.90;;;;;;5035572;28;20371;-47
2021/09/19 03:58:02;;;;;;;5.95;3.25;;;12.50;99.90;;;;;;5052679;28;20279;-45
2021/09/19 04:00:28;;;;;;;3.78;3.47;;;12.40;99.90;;;;;;5035613;28;20098;-45
2021/09/19 04:02:54;;;;;;;4.55;3.70;;;12.40;99.90;;;;;;5053620;28;20028;-45
2021/09/19 04:05:19;;;;;;;4.18;3.60;;;12.40;99.90;;;;;;5053599;28;20040;-47
2021/09/19 04:07:45;;;;;;;6.57;4.03;;;12.30;99.90;;;;;;5052924;28;20503;-48
2021/09/19 04:10:11;;;;;;;8.93;3.70;;;12.40;99.90;;;;;;5053198;28;20095;-47
2021/09/19 04:12:37;;;;;;;5.97;3.47;;;12.30;99.90;;;;;;5053571;28;20091;-46
2021/09/19 04:15:04;;;;;;;6.85;3.90;;;12.30;99.90;;;;;;5053580;28;20453;-45
2021/09/19 04:17:30;;;;;;;3.83;3.53;;;12.20;99.90;;;;;;5052817;28;20028;-44
2021/09/19 04:19:55;;;;;;;4.63;3.60;;;12.20;99.90;;;;;;5053554;28;20413;-45
2021/09/19 04:22:23;;;;;;;4.00;3.70;;;12.20;99.90;;;;;;5053594;28;20040;-46
2021/09/19 04:24:49;;;;;;;3.88;3.58;;;12.20;99.90;;;;;;5053496;28;20113;-45
2021/09/19 04:27:14;;;;;;;4.32;3.75;;;12.20;99.90;;;;;;5052790;28;20067;-45
2021/09/19 04:29:40;;;;;;;6.57;4.45;;;12.20;99.90;;;;;;5052993;28;20025;-45
2021/09/19 04:32:06;;;;;;;6.57;3.78;;;12.20;99.90;;;;;;5053180;28;20025;-46
2021/09/19 04:34:31;;;;;;;6.45;4.57;;;12.20;99.90;;;;;;5052909;28;20096;-45
2021/09/19 04:36:57;;;;;;;3.75;3.50;;;12.20;99.90;;;;;;5052530;28;20382;-45
2021/09/19 04:39:22;;;;;;;4.45;4.10;;;12.10;99.90;;;;;;5051789;28;20029;-45
2021/09/19 04:41:48;;;;;;;6.55;4.05;;;12.10;99.90;;;;;;5052765;28;20029;-47
2021/09/19 04:44:13;;;;;;;4.28;3.92;;;12.20;99.90;;;;;;5052459;28;20037;-48
2021/09/19 04:46:38;;;;;;;5.65;4.35;;;12.10;99.90;;;;;;5051405;28;20056;-47
2021/09/19 04:49:04;;;;;;;5.00;4.13;;;12.20;99.90;;;;;;5033256;28;20074;-50
2021/09/19 04:51:29;;;;;;;4.30;3.90;;;12.10;99.90;;;;;;5052089;28;20455;-48
2021/09/19 04:53:55;;;;;;;5.68;4.07;;;12.20;99.90;;;;;;5052300;28;20037;-46
2021/09/19 04:56:21;;;;;;;4.43;3.92;;;12.20;99.90;;;;;;5052145;28;20029;-46
2021/09/19 04:58:46;;;;;;;5.00;3.53;;;12.20;99.90;;;;;;5051702;28;20059;-45
2021/09/19 05:01:12;;;;;;;10.25;4.05;;;12.20;99.90;;;;;;5034205;28;20021;-48
2021/09/19 05:03:38;;;;;;;5.70;3.80;;;12.30;99.90;;;;;;5034359;28;20048;-47
2021/09/19 05:06:03;;;;;;;7.97;4.40;;;12.30;99.90;;;;;;5052049;28;20477;-45
2021/09/19 05:08:29;;;;;;;4.22;3.83;;;12.30;99.90;;;;;;5051201;28;20040;-45
2021/09/19 05:10:54;;;;;;;5.50;4.07;;;12.30;99.90;;;;;;5051918;28;20474;-46
2021/09/19 05:13:20;;;;;;;4.25;3.85;;;12.20;99.90;;;;;;5052393;28;20052;-46
2021/09/19 05:15:45;;;;;;;6.32;4.20;;;12.20;99.90;;;;;;5052731;28;20017;-48
2021/09/19 05:18:11;;;;;;;4.18;3.72;;;12.20;99.90;;;;;;5051406;28;20059;-47
2021/09/19 05:20:37;;;;;;;4.35;3.95;;;12.20;99.90;;;;;;5052150;28;20183;-47
2021/09/19 05:23:02;;;;;;;4.05;3.50;;;12.20;99.90;;;;;;5052099;28;20029;-46
2021/09/19 05:25:28;;;;;;;3.95;3.63;;;12.20;99.90;;;;;;5052097;28;20411;-48
2021/09/19 05:27:53;;;;;;;6.20;4.63;;;12.20;99.90;;;;;;5051128;28;20041;-45
2021/09/19 05:30:19;;;;;;;4.95;4.55;;;12.30;99.90;;;;;;5051888;28;20393;-51
2021/09/19 05:32:45;;;;;;;4.50;4.10;;;12.20;99.90;;;;;;5051889;28;20032;-49
2021/09/19 05:35:11;;;;;;;4.43;4.03;;;12.30;99.90;;;;;;5033785;28;20123;-47
2021/09/19 05:37:37;;;;;;;6.15;4.40;;;12.30;99.90;;;;;;5049439;28;20029;-48
2021/09/19 05:40:04;;;;;;;4.55;4.13;;;12.20;99.90;;;;;;5051710;28;20090;-47
2021/09/19 05:42:30;;;;;;;4.57;4.18;;;12.20;99.90;;;;;;5051455;28;20025;-50
2021/09/19 05:44:55;;;;;;;5.72;3.78;;;12.30;99.90;;;;;;5033869;28;20025;-45
2021/09/19 05:47:21;;;;;;;5.28;4.78;;;12.30;99.90;;;;;;5051020;28;20029;-47
2021/09/19 05:49:46;;;;;;;4.05;3.70;;;12.40;99.90;;;;;;5051642;28;20367;-50
2021/09/19 05:52:12;;;;;;;4.15;3.75;;;12.40;99.90;;;;;;5051587;28;20064;-48
2021/09/19 05:54:37;;;;;;;3.90;3.60;;;12.50;99.90;;;;;;5051508;28;20363;-47
2021/09/19 05:57:03;;;;;;;4.95;4.32;;;12.60;99.90;;;;;;5051156;28;20044;-44
2021/09/19 05:59:28;;;;;;;4.10;3.72;;;12.70;99.90;;;;;;5050847;28;20090;-46
2021/09/19 06:01:54;;;;;;;5.82;4.45;;;12.70;99.90;;;;;;5051422;28;20029;-47
2021/09/19 06:04:20;;;;;;;6.97;4.20;;;12.80;99.90;;;;;;5051257;28;20025;-46
2021/09/19 06:06:45;;;;;;;4.18;3.88;;;12.90;99.90;;;;;;5051144;28;20032;-48
2021/09/19 06:09:11;;;;;;;6.22;4.00;;;13.00;99.90;;;;;;5050500;28;20039;-51
2021/09/19 06:11:36;;;;;;;4.82;4.32;;;13.00;99.90;;;;;;5049704;28;20377;-50
2021/09/19 06:14:02;;;;;;;4.78;4.28;;;13.10;99.90;;;;;;5033264;28;20418;-48
2021/09/19 06:16:27;;;;;;;4.90;4.43;;;13.20;99.90;;;;;;5033169;28;20021;-45
2021/09/19 06:18:53;;;;;;;4.47;4.00;;;13.30;99.90;;;;;;5050167;28;20028;-48
2021/09/19 06:21:19;;;;;;;4.95;4.50;;;13.40;99.90;;;;;;5050919;28;20100;-45
2021/09/19 06:23:44;;;;;;;6.78;3.92;;;13.60;99.90;;;;;;5033121;28;20101;-44
2021/09/19 06:26:10;;;;;;;4.22;3.92;;;13.80;99.90;;;;;;5050977;28;20025;-46
2021/09/19 06:28:35;;;;;;;3.33;3.10;;;13.70;99.90;;;;;;5033161;28;20483;-48
2021/09/19 06:31:01;;;;;;;8.88;3.83;;;13.80;99.90;;;;;;5050814;28;20025;-48
2021/09/19 06:33:27;;;;;;;5.90;3.65;;;13.90;99.90;;;;;;5050822;28;20028;-51
2021/09/19 06:35:53;;;;;;;3.55;3.25;;;13.90;99.90;;;;;;5050780;28;20096;-45
2021/09/19 06:38:18;;;;;;;5.07;3.42;;;13.80;99.90;;;;;;5050061;28;20112;-47
2021/09/19 06:40:44;;;;;;;4.03;3.63;;;13.70;99.90;;;;;;5050861;28;20037;-46
2021/09/19 06:43:09;;;;;;;5.00;4.13;;;13.70;99.90;;;;;;5050563;28;20029;-49
2021/09/19 06:45:34;;;;;;;3.70;3.40;;;13.80;99.90;;;;;;5051007;28;20029;-46
2021/09/19 06:48:00;;;;;;;4.00;3.53;;;13.80;99.90;;;;;;5049771;28;20394;-45
2021/09/19 06:50:26;;;;;;;3.53;3.28;;;14.00;99.90;;;;;;5050373;28;20397;-49
2021/09/19 06:52:51;;;;;;;4.10;3.70;;;14.00;99.90;;;;;;5050490;28;20017;-49
2021/09/19 06:55:17;;;;;;;4.60;3.63;;;14.10;99.90;;;;;;5032669;28;20025;-46
2021/09/19 06:57:42;;;;;;;3.50;3.20;;;14.20;99.90;;;;;;5049701;28;20235;-45
2021/09/19 07:00:08;;;;;;;4.00;3.42;;;14.30;99.90;;;;;;5050399;28;20036;-48
2021/09/19 07:02:34;;;;;;;5.75;3.85;;;14.30;99.90;;;;;;5032435;28;20029;-48
2021/09/19 07:04:59;;;;;;;3.58;3.28;;;14.30;99.90;;;;;;5050307;28;20155;-47
2021/09/19 07:07:26;;;;;;;4.10;3.65;;;14.30;99.90;;;;;;5049729;28;20467;-46
2021/09/19 07:09:51;;;;;;;3.70;3.40;;;14.40;99.90;;;;;;5050013;28;20466;-48
2021/09/19 07:12:17;;;;;;;4.57;4.00;;;14.40;99.90;;;;;;5050724;28;20035;-46
2021/09/19 07:14:42;;;;;;;4.47;3.92;;;14.60;99.90;;;;;;5050602;28;20124;-48
2021/09/19 07:17:08;;;;;;;6.65;3.83;;;14.60;99.90;;;;;;5032319;28;20014;-49
2021/09/19 07:19:33;;;;;;;5.20;3.53;;;14.60;99.90;;;;;;5049890;28;20033;-49
2021/09/19 07:21:59;;;;;;;4.60;4.20;;;14.80;99.90;;;;;;5050636;28;20443;-48
2021/09/19 07:24:24;;;;;;;4.82;3.83;;;15.10;99.90;;;;;;5050322;28;20033;-45
2021/09/19 07:26:50;;;;;;;4.25;3.78;;;15.40;99.90;;;;;;5050256;28;20061;-47
2021/09/19 07:29:15;;;;;;;4.47;4.07;;;15.60;99.90;;;;;;5049244;28;20071;-45
2021/09/19 07:31:41;;;;;;;4.80;4.38;;;15.60;99.90;;;;;;5050283;28;20478;-50
2021/09/19 07:34:07;;;;;;;4.43;4.03;;;15.70;99.90;;;;;;5050076;28;20021;-46
2021/09/19 07:36:35;;;;;;;4.00;3.70;;;15.70;99.90;;;;;;5050221;28;20032;-49
2021/09/19 07:39:06;;;;;;;3.97;3.67;;;15.70;99.90;;;;;;5047674;28;20489;-49
2021/09/19 07:41:33;;;;;;;4.35;4.05;;;15.60;99.90;;;;;;5032484;28;20068;-49
2021/09/19 07:43:58;;;;;;;5.25;3.42;;;15.50;99.90;;;;;;5050626;28;20495;-47
2021/09/19 07:46:25;;;;;;;3.97;3.67;;;15.50;99.90;;;;;;5050265;28;20116;-47
2021/09/19 07:48:51;;;;;;;4.72;4.30;;;15.60;99.90;;;;;;5049499;28;20414;-46
2021/09/19 07:51:17;;;;;;;5.63;4.03;;;15.60;99.90;;;;;;5049987;28;20021;-46
2021/09/19 07:53:45;;;;;;;4.32;3.92;;;15.60;99.90;;;;;;5050233;28;20100;-51
2021/09/19 07:56:11;;;;;;;4.32;4.03;;;15.60;99.90;;;;;;5050259;28;20071;-47
2021/09/19 07:58:36;;;;;;;3.22;2.75;;;15.40;99.90;;;;;;5049286;28;20028;-45
2021/09/19 08:01:02;;;;;;;4.25;3.85;;;15.30;99.90;;;;;;5049989;28;20450;-48
2021/09/19 08:03:28;;;;;;;4.30;3.78;;;15.30;99.90;;;;;;5050179;28;20021;-45
2021/09/19 08:05:53;;;;;;;3.70;3.33;;;15.30;99.90;;;;;;5050119;28;20393;-46
2021/09/19 08:08:19;;;;;;;3.85;3.55;;;15.30;99.90;;;;;;5047323;28;20025;-47
2021/09/19 08:10:44;;;;;;;10.32;3.30;;;15.30;99.90;;;;;;5049805;28;20482;-47
2021/09/19 08:13:10;;;;;;;4.47;3.50;;;15.30;99.90;;;;;;5050170;28;20051;-47
2021/09/19 08:15:35;;;;;;;2.85;2.65;;;15.30;99.90;;;;;;5049910;28;20028;-46
2021/09/19 08:18:01;;;;;;;5.55;3.50;;;15.30;99.90;;;;;;5049268;28;20032;-48
2021/09/19 08:20:26;;;;;;;3.17;2.95;;;15.30;99.90;;;;;;5049927;28;20040;-49
2021/09/19 08:22:52;;;;;;;3.65;3.35;;;15.40;99.90;;;;;;5053775;28;20243;-48
2021/09/19 08:25:18;;;;;;;3.50;3.20;;;15.40;99.90;;;;;;5053397;28;20458;-49
2021/09/19 08:27:45;;;;;;;3.90;3.60;;;15.40;99.90;;;;;;5052524;28;20041;-47
2021/09/19 08:30:12;;;;;;;6.03;3.47;;;15.50;99.90;;;;;;5053296;28;20032;-48
2021/09/19 08:32:39;;;;;;;3.53;3.03;;;15.60;99.90;;;;;;5053119;28;20048;-48
2021/09/19 08:35:06;;;;;;;3.40;3.13;;;15.50;99.90;;;;;;5053124;28;20025;-49
2021/09/19 08:37:31;;;;;;;3.88;3.58;;;15.60;99.90;;;;;;5052294;28;20441;-50
2021/09/19 08:39:57;;;;;;;3.33;3.03;;;15.60;99.90;;;;;;5035366;28;20032;-49
2021/09/19 08:42:23;;;;;;;3.53;3.28;;;15.60;99.90;;;;;;5052944;28;20075;-47
2021/09/19 08:44:49;;;;;;;4.85;3.00;;;15.60;99.90;;;;;;5052752;28;20120;-47
2021/09/19 08:47:15;;;;;;;3.13;2.90;;;15.70;99.90;;;;;;5052541;28;20104;-45
2021/09/19 08:49:43;;;;;;;2.55;2.40;;;16.50;99.90;;;;;;5052624;28;20078;-46
2021/09/19 08:52:10;;;;;;;6.70;2.70;;;17.70;99.90;;;;;;5052775;28;20502;-47
2021/09/19 08:54:36;;;;;;;2.78;2.58;;;19.10;99.80;;;;;;5052769;28;20398;-46
2021/09/19 08:57:02;;;;;;;2.63;2.45;;;20.00;96.70;;;;;;5052738;28;20021;-48
2021/09/19 08:59:43;;;;;;;4.07;2.33;;;20.50;95.70;;;;;;5052055;28;20033;-47
2021/09/19 09:02:08;;;;;;;2.13;1.98;;;20.90;94.80;;;;;;5052576;28;20021;-45
2021/09/19 09:04:37;;;;;;;3.05;2.20;;;21.10;94.30;;;;;;5052530;28;20036;-46
2021/09/19 09:07:03;;;;;;;2.63;2.40;;;21.10;93.80;;;;;;5052215;28;20108;-50
2021/09/19 09:09:28;;;;;;;3.05;2.20;;;21.30;93.70;;;;;;5051856;28;20597;-51
2021/09/19 09:12:12;;;;;;;2.80;2.25;;;21.50;93.20;;;;;;5052317;28;20021;-46
2021/09/19 09:14:43;;;;;;;3.05;2.13;;;21.50;93.20;;;;;;5052419;28;20150;-46
2021/09/19 09:17:18;;;;;;;2.22;2.08;;;21.90;93.10;;;;;;5052315;28;20249;-47
2021/09/19 09:19:46;;;;;;;2.28;2.10;;;21.80;92.80;;;;;;5052415;28;20046;-48
2021/09/19 09:22:12;;;;;;;2.65;2.45;;;21.40;93.20;;;;;;5052153;28;20632;-46
2021/09/19 09:24:39;;;;;;;2.20;2.10;;;21.30;93.50;;;;;;5052152;28;20059;-51
2021/09/19 09:27:23;;;;;;;3.08;2.55;;;21.60;93.00;;;;;;5051770;28;20028;-49
2021/09/19 09:30:18;;;;;;;3.50;2.30;;;21.20;93.50;;;;;;5051951;28;20111;-50
2021/09/19 09:33:04;;;;;;;2.40;2.20;;;20.70;94.10;;;;;;5051578;28;20033;-46
2021/09/19 09:35:41;;;;;;;3.22;2.17;;;20.60;94.20;;;;;;5051972;28;20028;-47
2021/09/19 09:38:17;;;;;;;2.72;2.60;;;20.50;94.30;;;;;;5049317;28;20387;-48
2021/09/19 09:40:42;;;;;;;2.60;2.42;;;20.80;94.60;;;;;;5051630;28;20033;-47
2021/09/19 09:43:10;;;;;;;4.22;2.47;;;21.10;94.00;;;;;;5051614;28;20131;-48
2021/09/19 09:45:39;;;;;;;2.65;2.50;;;20.40;94.30;;;;;;5051851;28;20044;-45
2021/09/19 09:48:33;;;;;;;2.58;2.38;;;20.50;94.90;;;;;;5050942;28;20028;-47
2021/09/19 09:51:03;;;;;;;3.03;2.83;;;20.30;94.40;;;;;;5051246;28;20024;-45
2021/09/19 09:53:29;;;;;;;2.75;2.55;;;20.10;95.00;;;;;;5033588;28;20074;-50
2021/09/19 09:55:58;;;;;;;2.72;2.53;;;20.00;95.20;;;;;;5051541;28;20041;-46
2021/09/19 09:58:24;;;;;;;2.25;2.15;;;20.20;95.20;;;;;;5050767;28;20366;-49
2021/09/19 10:00:54;;;;;;;2.55;2.38;;;20.20;95.00;;;;;;5051474;28;20033;-48
2021/09/19 10:03:20;;;;;;;2.67;2.47;;;20.00;95.10;;;;;;5051582;28;20613;-45
2021/09/19 10:05:46;;;;;;;2.83;2.45;;;19.90;95.30;;;;;;5033769;28;20021;-48
2021/09/19 10:08:12;;;;;;;2.42;2.30;;;19.80;95.60;;;;;;5032692;28;20397;-47
2021/09/19 10:10:40;;;;;;;7.50;2.38;;;20.00;95.20;;;;;;5049806;28;20040;-49
2021/09/19 10:13:07;;;;;;;2.33;2.22;;;20.20;94.90;;;;;;5051303;28;20017;-49
2021/09/19 10:15:35;;;;;;;4.65;2.35;;;20.30;95.00;;;;;;5051447;28;20025;-48
2021/09/19 10:18:01;;;;;;;2.78;2.58;;;20.30;94.60;;;;;;5050417;28;20025;-48
2021/09/19 10:20:29;;;;;;;2.25;2.05;;;20.10;94.70;;;;;;5051115;28;20051;-48
2021/09/19 10:23:19;;;;;;;2.90;2.70;;;20.20;95.10;;;;;;5051120;28;20077;-46
2021/09/19 10:26:08;;;;;;;2.50;2.30;;;20.20;94.90;;;;;;5051705;28;20035;-47
2021/09/19 10:28:43;;;;;;;2.25;2.15;;;20.10;95.10;;;;;;5050221;28;20068;-46
2021/09/19 10:31:08;;;;;;;2.70;2.20;;;20.10;94.60;;;;;;5050947;28;20029;-45
2021/09/19 10:33:36;;;;;;;3.13;2.85;;;20.10;94.80;;;;;;5033386;28;20367;-46
2021/09/19 10:36:02;;;;;;;4.30;2.30;;;20.20;94.80;;;;;;5051019;28;20027;-46
2021/09/19 10:38:36;;;;;;;2.17;2.08;;;20.20;95.00;;;;;;5032213;28;20029;-46
2021/09/19 10:41:22;;;;;;;2.30;2.20;;;20.10;94.20;;;;;;5050886;28;20074;-49
2021/09/19 10:43:55;;;;;;;2.60;2.40;;;20.20;94.70;;;;;;5050106;28;20033;-48
2021/09/19 10:46:39;;;;;;;2.85;2.65;;;20.20;94.50;;;;;;5050793;28;20494;-45
2021/09/19 10:49:18;;;;;;;5.07;2.30;;;20.00;94.80;;;;;;5049818;28;20024;-50
2021/09/19 10:51:59;;;;;;;25.08;19.20;;;19.60;95.10;;;;;;5032669;28;20032;-47
2021/09/19 10:54:50;;;;;;;33.72;25.27;;;19.30;95.60;;;;;;5032584;28;20105;-46
2021/09/19 10:57:28;;;;;;;4.88;2.97;;;19.20;95.90;;;;;;5050100;28;20021;-48
2021/09/19 11:00:12;;;;;;;2.17;2.08;;;19.30;96.70;;;;;;5050336;28;20037;-49
2021/09/19 11:02:40;;;;;;;2.55;2.35;;;19.40;95.80;;;;;;5032178;28;20108;-49
2021/09/19 11:05:28;;;;;;;2.30;2.20;;;19.30;95.90;;;;;;5050775;28;20025;-48
2021/09/19 11:08:06;;;;;;;2.85;2.40;;;19.20;96.30;;;;;;5050710;28;20021;-53
2021/09/19 11:10:32;;;;;;;4.15;2.70;;;19.40;96.40;;;;;;5050751;28;20036;-46
2021/09/19 11:12:57;;;;;;;2.42;2.25;;;19.60;95.90;;;;;;5032550;28;20021;-49
2021/09/19 11:15:25;;;;;;;3.45;2.63;;;19.70;95.60;;;;;;5050494;28;20025;-49
2021/09/19 11:17:51;;;;;;;2.90;2.70;;;19.80;96.20;;;;;;5050576;28;20056;-48
2021/09/19 11:20:17;;;;;;;2.45;2.20;;;19.90;95.30;;;;;;5050318;28;20025;-50
2021/09/19 11:22:50;;;;;;;3.72;2.83;;;19.80;95.80;;;;;;5049860;28;20036;-46
2021/09/19 11:25:17;;;;;;;2.35;2.15;;;19.80;96.00;;;;;;5050085;28;20027;-46
2021/09/19 11:27:45;;;;;;;3.42;2.50;;;19.70;95.40;;;;;;5049643;28;20079;-47
2021/09/19 11:30:12;;;;;;;2.63;2.20;;;19.50;95.60;;;;;;5050033;28;20032;-48
2021/09/19 11:32:38;;;;;;;2.50;2.30;;;19.50;95.60;;;;;;5050118;28;20071;-48
2021/09/19 11:35:08;;;;;;;2.95;2.60;;;19.40;96.00;;;;;;5049909;28;20029;-47
2021/09/19 11:37:33;;;;;;;3.30;2.13;;;19.30;96.00;;;;;;5049335;28;20437;-46
2021/09/19 11:39:59;;;;;;;2.10;2.00;;;19.30;96.00;;;;;;5049935;28;20090;-46
2021/09/19 11:42:27;;;;;;;2.35;2.15;;;19.20;96.10;;;;;;5049865;28;20033;-46
2021/09/19 11:44:53;;;;;;;2.47;2.08;;;19.30;96.20;;;;;;5050084;28;20463;-47
2021/09/19 11:47:21;;;;;;;2.42;2.20;;;19.30;96.30;;;;;;5031212;28;20064;-46
2021/09/19 11:49:50;;;;;;;3.15;2.85;;;19.30;96.10;;;;;;5049932;28;20071;-46
2021/09/19 11:52:16;;;;;;;3.30;2.80;;;19.20;96.40;;;;;;5049890;28;20024;-46
2021/09/19 11:54:43;;;;;;;2.78;2.58;;;19.10;96.30;;;;;;5050485;28;20082;-46
2021/09/19 11:57:11;;;;;;;2.67;2.38;;;19.10;96.40;;;;;;5053533;28;20028;-47
2021/09/19 11:59:43;;;;;;;4.65;2.30;;;19.20;96.30;;;;;;5053818;28;20028;-51
2021/09/19 12:02:11;;;;;;;2.38;2.17;;;19.20;96.50;;;;;;5053918;28;20509;-47
2021/09/19 12:04:37;;;;;;;2.53;2.33;;;19.10;96.00;;;;;;5035612;28;20545;-53
2021/09/19 12:07:04;;;;;;;4.28;2.38;;;19.10;96.50;;;;;;5053570;28;20090;-48
2021/09/19 12:09:29;;;;;;;2.72;2.05;;;19.10;96.40;;;;;;5053452;28;20029;-46
2021/09/19 12:11:56;;;;;;;2.55;2.38;;;19.20;96.40;;;;;;5053338;28;20021;-45
2021/09/19 12:14:27;;;;;;;2.63;2.42;;;19.10;95.80;;;;;;5053613;28;20047;-48
2021/09/19 12:17:01;;;;;;;4.97;3.50;;;19.00;96.10;;;;;;5054118;28;20025;-50
2021/09/19 12:19:27;;;;;;;6.93;3.30;;;19.00;96.30;;;;;;5052762;28;20429;-46
2021/09/19 12:22:19;;;;;;;3.53;3.08;;;19.00;96.20;;;;;;5053500;28;20064;-46
2021/09/19 12:24:50;;;;;;;2.35;2.20;;;19.00;96.10;;;;;;5053393;28;20079;-45
2021/09/19 12:27:20;;;;;;;2.33;2.10;;;19.10;96.40;;;;;;5052776;28;20429;-47
2021/09/19 12:30:00;;;;;;;2.38;2.17;;;19.10;96.40;;;;;;5053065;28;20025;-50
2021/09/19 12:32:54;;;;;;;3.72;2.20;;;19.20;96.20;;;;;;5053119;28;20028;-46
2021/09/19 12:35:30;;;;;;;2.97;2.38;;;19.30;95.80;;;;;;5051294;28;20033;-47
2021/09/19 12:37:58;;;;;;;2.65;2.50;;;19.30;95.90;;;;;;5052721;28;20100;-46
2021/09/19 12:40:25;;;;;;;2.55;2.35;;;19.40;96.30;;;;;;5034983;28;20056;-47
2021/09/19 12:43:01;;;;;;;3.97;3.15;;;19.40;96.50;;;;;;5052848;28;20033;-46
2021/09/19 12:45:27;;;;;;;3.53;3.17;;;19.40;96.60;;;;;;5052971;28;20033;-50
2021/09/19 12:47:56;;;;;;;5.05;3.03;;;19.40;96.70;;;;;;5034004;28;20029;-44